sensor_id;sensor_type;location;lat;lon;timestamp;P1;durP1;ratioP1;P2;durP2;ratioP2
17714;SDS011;8977;50.902;4.314;2023-02-12T00:00:20;14.83;;;12.73;;
17714;SDS011;8977;50.902;4.314;2023-02-12T00:02:48;15.23;;;13.20;;
17714;SDS011;8977;50.902;4.314;2023-02-12T00:05:16;13.70;;;12.00;;
17714;SDS011;8977;50.902;4.314;2023-02-12T00:07:43;12.23;;;10.97;;
17714;SDS011;8977;50.902;4.314;2023-02-12T00:10:10;12.00;;;10.03;;
17714;SDS011;8977;50.902;4.314;2023-02-12T00:12:37;12.07;;;10.83;;
17714;SDS011;8977;50.902;4.314;2023-02-12T00:15:04;13.03;;;11.70;;
17714;SDS011;8977;50.902;4.314;2023-02-12T00:17:33;13.07;;;11.67;;
17714;SDS011;8977;50.902;4.314;2023-02-12T00:20:00;13.90;;;12.40;;
17714;SDS011;8977;50.902;4.314;2023-02-12T00:22:28;13.50;;;11.37;;
17714;SDS011;8977;50.902;4.314;2023-02-12T00:24:55;11.80;;;10.60;;
17714;SDS011;8977;50.902;4.314;2023-02-12T00:27:22;12.90;;;10.17;;
17714;SDS011;8977;50.902;4.314;2023-02-12T00:29:49;12.83;;;11.50;;
17714;SDS011;8977;50.902;4.314;2023-02-12T00:32:16;13.60;;;11.33;;
17714;SDS011;8977;50.902;4.314;2023-02-12T00:34:45;13.30;;;11.13;;
17714;SDS011;8977;50.902;4.314;2023-02-12T00:37:11;15.90;;;12.00;;
17714;SDS011;8977;50.902;4.314;2023-02-12T00:39:41;16.20;;;12.17;;
17714;SDS011;8977;50.902;4.314;2023-02-12T00:42:08;12.93;;;11.70;;
17714;SDS011;8977;50.902;4.314;2023-02-12T00:44:35;15.10;;;12.63;;
17714;SDS011;8977;50.902;4.314;2023-02-12T00:47:02;13.83;;;11.70;;
17714;SDS011;8977;50.902;4.314;2023-02-12T00:49:29;13.93;;;11.63;;
17714;SDS011;8977;50.902;4.314;2023-02-12T00:51:58;13.83;;;11.30;;
17714;SDS011;8977;50.902;4.314;2023-02-12T00:54:25;13.60;;;11.73;;
17714;SDS011;8977;50.902;4.314;2023-02-12T00:56:53;13.03;;;11.63;;
17714;SDS011;8977;50.902;4.314;2023-02-12T00:59:20;14.63;;;12.07;;
17714;SDS011;8977;50.902;4.314;2023-02-12T01:01:48;12.97;;;11.37;;
17714;SDS011;8977;50.902;4.314;2023-02-12T01:04:15;12.97;;;11.67;;
17714;SDS011;8977;50.902;4.314;2023-02-12T01:06:42;13.53;;;12.20;;
17714;SDS011;8977;50.902;4.314;2023-02-12T01:09:09;14.73;;;12.90;;
17714;SDS011;8977;50.902;4.314;2023-02-12T01:11:36;13.90;;;12.57;;
17714;SDS011;8977;50.902;4.314;2023-02-12T01:14:05;13.67;;;12.27;;
17714;SDS011;8977;50.902;4.314;2023-02-12T01:16:32;13.50;;;11.93;;
17714;SDS011;8977;50.902;4.314;2023-02-12T01:19:00;14.20;;;12.20;;
17714;SDS011;8977;50.902;4.314;2023-02-12T01:21:30;13.37;;;12.07;;
17714;SDS011;8977;50.902;4.314;2023-02-12T01:24:00;13.30;;;11.90;;
17714;SDS011;8977;50.902;4.314;2023-02-12T01:26:28;13.00;;;11.67;;
17714;SDS011;8977;50.902;4.314;2023-02-12T01:28:57;13.67;;;12.27;;
17714;SDS011;8977;50.902;4.314;2023-02-12T01:31:27;15.67;;;14.13;;
17714;SDS011;8977;50.902;4.314;2023-02-12T01:33:55;13.13;;;11.83;;
17714;SDS011;8977;50.902;4.314;2023-02-12T01:36:23;14.20;;;12.20;;
17714;SDS011;8977;50.902;4.314;2023-02-12T01:38:51;13.17;;;11.73;;
17714;SDS011;8977;50.902;4.314;2023-02-12T01:41:20;14.83;;;13.33;;
17714;SDS011;8977;50.902;4.314;2023-02-12T01:46:35;14.50;;;13.00;;
17714;SDS011;8977;50.902;4.314;2023-02-12T01:49:04;16.40;;;13.80;;
17714;SDS011;8977;50.902;4.314;2023-02-12T01:51:34;15.00;;;13.50;;
17714;SDS011;8977;50.902;4.314;2023-02-12T01:54:03;15.63;;;13.90;;
17714;SDS011;8977;50.902;4.314;2023-02-12T01:56:33;14.87;;;13.17;;
17714;SDS011;8977;50.902;4.314;2023-02-12T01:59:00;17.93;;;13.53;;
17714;SDS011;8977;50.902;4.314;2023-02-12T02:01:28;14.97;;;13.47;;
17714;SDS011;8977;50.902;4.314;2023-02-12T02:03:59;16.17;;;14.47;;
17714;SDS011;8977;50.902;4.314;2023-02-12T02:06:30;15.97;;;14.37;;
17714;SDS011;8977;50.902;4.314;2023-02-12T02:08:59;15.50;;;13.87;;
17714;SDS011;8977;50.902;4.314;2023-02-12T02:11:27;16.37;;;14.27;;
17714;SDS011;8977;50.902;4.314;2023-02-12T02:14:11;16.43;;;13.97;;
17714;SDS011;8977;50.902;4.314;2023-02-12T02:16:59;16.03;;;14.17;;
17714;SDS011;8977;50.902;4.314;2023-02-12T02:20:05;16.50;;;14.80;;
17714;SDS011;8977;50.902;4.314;2023-02-12T02:22:55;16.57;;;14.97;;
17714;SDS011;8977;50.902;4.314;2023-02-12T02:28:43;17.17;;;15.20;;
17714;SDS011;8977;50.902;4.314;2023-02-12T02:31:33;17.57;;;15.30;;
17714;SDS011;8977;50.902;4.314;2023-02-12T02:34:07;17.03;;;15.40;;
17714;SDS011;8977;50.902;4.314;2023-02-12T02:36:40;17.50;;;15.60;;
17714;SDS011;8977;50.902;4.314;2023-02-12T02:39:13;18.70;;;16.67;;
17714;SDS011;8977;50.902;4.314;2023-02-12T02:41:45;18.50;;;16.60;;
17714;SDS011;8977;50.902;4.314;2023-02-12T02:44:20;19.37;;;17.47;;
17714;SDS011;8977;50.902;4.314;2023-02-12T02:46:51;20.07;;;18.13;;
17714;SDS011;8977;50.902;4.314;2023-02-12T02:49:20;22.13;;;19.83;;
17714;SDS011;8977;50.902;4.314;2023-02-12T02:51:51;20.30;;;18.23;;
17714;SDS011;8977;50.902;4.314;2023-02-12T02:54:22;21.27;;;19.07;;
17714;SDS011;8977;50.902;4.314;2023-02-12T02:56:58;20.43;;;18.33;;
17714;SDS011;8977;50.902;4.314;2023-02-12T02:59:32;21.33;;;18.57;;
17714;SDS011;8977;50.902;4.314;2023-02-12T03:02:05;20.93;;;18.63;;
17714;SDS011;8977;50.902;4.314;2023-02-12T03:04:40;20.23;;;18.17;;
17714;SDS011;8977;50.902;4.314;2023-02-12T03:07:10;19.80;;;17.70;;
17714;SDS011;8977;50.902;4.314;2023-02-12T03:09:40;18.67;;;16.83;;
17714;SDS011;8977;50.902;4.314;2023-02-12T03:12:12;20.57;;;18.47;;
17714;SDS011;8977;50.902;4.314;2023-02-12T03:14:42;22.47;;;20.27;;
17714;SDS011;8977;50.902;4.314;2023-02-12T03:17:15;23.20;;;20.70;;
17714;SDS011;8977;50.902;4.314;2023-02-12T03:19:49;22.27;;;19.90;;
17714;SDS011;8977;50.902;4.314;2023-02-12T03:22:19;23.87;;;20.73;;
17714;SDS011;8977;50.902;4.314;2023-02-12T03:24:52;21.77;;;19.53;;
17714;SDS011;8977;50.902;4.314;2023-02-12T03:27:25;24.00;;;21.40;;
17714;SDS011;8977;50.902;4.314;2023-02-12T03:29:55;22.57;;;19.93;;
17714;SDS011;8977;50.902;4.314;2023-02-12T03:32:26;22.77;;;20.43;;
17714;SDS011;8977;50.902;4.314;2023-02-12T03:35:00;24.20;;;21.60;;
17714;SDS011;8977;50.902;4.314;2023-02-12T03:37:35;22.70;;;20.30;;
17714;SDS011;8977;50.902;4.314;2023-02-12T03:40:07;25.53;;;21.67;;
17714;SDS011;8977;50.902;4.314;2023-02-12T03:42:43;22.93;;;20.17;;
17714;SDS011;8977;50.902;4.314;2023-02-12T03:45:16;24.50;;;21.13;;
17714;SDS011;8977;50.902;4.314;2023-02-12T03:47:50;25.17;;;20.50;;
17714;SDS011;8977;50.902;4.314;2023-02-12T03:50:24;25.40;;;20.80;;
17714;SDS011;8977;50.902;4.314;2023-02-12T03:52:55;24.73;;;21.00;;
17714;SDS011;8977;50.902;4.314;2023-02-12T03:55:22;21.00;;;18.80;;
17714;SDS011;8977;50.902;4.314;2023-02-12T03:57:50;20.87;;;17.80;;
17714;SDS011;8977;50.902;4.314;2023-02-12T04:00:21;20.70;;;17.07;;
17714;SDS011;8977;50.902;4.314;2023-02-12T04:02:51;17.50;;;15.60;;
17714;SDS011;8977;50.902;4.314;2023-02-12T04:05:21;17.17;;;15.37;;
17714;SDS011;8977;50.902;4.314;2023-02-12T04:07:49;19.27;;;15.50;;
17714;SDS011;8977;50.902;4.314;2023-02-12T04:10:17;20.03;;;17.13;;
17714;SDS011;8977;50.902;4.314;2023-02-12T04:12:53;19.17;;;17.17;;
17714;SDS011;8977;50.902;4.314;2023-02-12T04:15:28;21.80;;;18.80;;
17714;SDS011;8977;50.902;4.314;2023-02-12T04:18:14;22.10;;;19.53;;
17714;SDS011;8977;50.902;4.314;2023-02-12T04:20:47;21.00;;;18.20;;
17714;SDS011;8977;50.902;4.314;2023-02-12T04:23:23;22.67;;;18.50;;
17714;SDS011;8977;50.902;4.314;2023-02-12T04:26:04;20.90;;;18.53;;
17714;SDS011;8977;50.902;4.314;2023-02-12T04:28:44;22.67;;;18.47;;
17714;SDS011;8977;50.902;4.314;2023-02-12T04:31:19;19.00;;;17.00;;
17714;SDS011;8977;50.902;4.314;2023-02-12T04:33:54;19.70;;;17.40;;
17714;SDS011;8977;50.902;4.314;2023-02-12T04:36:27;21.33;;;18.23;;
17714;SDS011;8977;50.902;4.314;2023-02-12T04:38:59;19.13;;;17.10;;
17714;SDS011;8977;50.902;4.314;2023-02-12T04:41:30;20.50;;;18.33;;
17714;SDS011;8977;50.902;4.314;2023-02-12T04:43:57;21.10;;;17.27;;
17714;SDS011;8977;50.902;4.314;2023-02-12T04:46:24;19.67;;;17.53;;
17714;SDS011;8977;50.902;4.314;2023-02-12T04:48:51;19.40;;;17.37;;
17714;SDS011;8977;50.902;4.314;2023-02-12T04:51:21;20.37;;;18.17;;
17714;SDS011;8977;50.902;4.314;2023-02-12T04:53:48;20.30;;;18.10;;
17714;SDS011;8977;50.902;4.314;2023-02-12T04:56:15;18.10;;;16.20;;
17714;SDS011;8977;50.902;4.314;2023-02-12T04:58:42;20.80;;;17.47;;
17714;SDS011;8977;50.902;4.314;2023-02-12T05:01:09;19.97;;;17.77;;
17714;SDS011;8977;50.902;4.314;2023-02-12T05:03:36;21.67;;;18.23;;
17714;SDS011;8977;50.902;4.314;2023-02-12T05:06:05;19.83;;;17.73;;
17714;SDS011;8977;50.902;4.314;2023-02-12T05:08:33;23.17;;;19.00;;
17714;SDS011;8977;50.902;4.314;2023-02-12T05:11:03;21.10;;;17.97;;
17714;SDS011;8977;50.902;4.314;2023-02-12T05:13:31;22.63;;;19.23;;
17714;SDS011;8977;50.902;4.314;2023-02-12T05:15:58;22.27;;;18.47;;
17714;SDS011;8977;50.902;4.314;2023-02-12T05:18:27;20.27;;;17.83;;
17714;SDS011;8977;50.902;4.314;2023-02-12T05:20:55;23.03;;;18.10;;
17714;SDS011;8977;50.902;4.314;2023-02-12T05:23:26;20.60;;;18.13;;
17714;SDS011;8977;50.902;4.314;2023-02-12T05:25:53;21.83;;;19.10;;
17714;SDS011;8977;50.902;4.314;2023-02-12T05:28:23;22.47;;;18.83;;
17714;SDS011;8977;50.902;4.314;2023-02-12T05:30:50;21.17;;;17.57;;
17714;SDS011;8977;50.902;4.314;2023-02-12T05:33:17;21.40;;;17.23;;
17714;SDS011;8977;50.902;4.314;2023-02-12T05:35:44;19.53;;;17.13;;
17714;SDS011;8977;50.902;4.314;2023-02-12T05:38:11;20.90;;;17.63;;
17714;SDS011;8977;50.902;4.314;2023-02-12T05:40:40;21.27;;;18.53;;
17714;SDS011;8977;50.902;4.314;2023-02-12T05:43:07;20.97;;;18.20;;
17714;SDS011;8977;50.902;4.314;2023-02-12T05:45:34;22.53;;;18.40;;
17714;SDS011;8977;50.902;4.314;2023-02-12T05:48:02;21.20;;;18.83;;
17714;SDS011;8977;50.902;4.314;2023-02-12T05:50:29;22.10;;;18.90;;
17714;SDS011;8977;50.902;4.314;2023-02-12T05:52:56;21.77;;;17.87;;
17714;SDS011;8977;50.902;4.314;2023-02-12T05:55:25;24.40;;;18.60;;
17714;SDS011;8977;50.902;4.314;2023-02-12T05:57:53;21.60;;;18.07;;
17714;SDS011;8977;50.902;4.314;2023-02-12T06:00:20;19.97;;;17.40;;
17714;SDS011;8977;50.902;4.314;2023-02-12T06:02:47;22.80;;;18.43;;
17714;SDS011;8977;50.902;4.314;2023-02-12T06:05:14;21.20;;;18.50;;
17714;SDS011;8977;50.902;4.314;2023-02-12T06:07:41;22.50;;;19.37;;
17714;SDS011;8977;50.902;4.314;2023-02-12T06:10:08;22.73;;;18.83;;
17714;SDS011;8977;50.902;4.314;2023-02-12T06:12:36;21.43;;;18.13;;
17714;SDS011;8977;50.902;4.314;2023-02-12T06:15:04;20.33;;;18.00;;
17714;SDS011;8977;50.902;4.314;2023-02-12T06:17:32;24.67;;;19.67;;
17714;SDS011;8977;50.902;4.314;2023-02-12T06:19:59;22.87;;;19.13;;
17714;SDS011;8977;50.902;4.314;2023-02-12T06:22:27;24.73;;;19.40;;
17714;SDS011;8977;50.902;4.314;2023-02-12T06:24:54;24.70;;;19.60;;
17714;SDS011;8977;50.902;4.314;2023-02-12T06:27:21;21.13;;;18.10;;
17714;SDS011;8977;50.902;4.314;2023-02-12T06:29:47;23.77;;;19.53;;
17714;SDS011;8977;50.902;4.314;2023-02-12T06:32:16;25.53;;;19.03;;
17714;SDS011;8977;50.902;4.314;2023-02-12T06:34:42;23.40;;;19.47;;
17714;SDS011;8977;50.902;4.314;2023-02-12T06:37:10;23.47;;;18.73;;
17714;SDS011;8977;50.902;4.314;2023-02-12T06:39:37;23.67;;;19.30;;
17714;SDS011;8977;50.902;4.314;2023-02-12T06:42:04;24.30;;;19.13;;
17714;SDS011;8977;50.902;4.314;2023-02-12T06:44:31;23.50;;;19.87;;
17714;SDS011;8977;50.902;4.314;2023-02-12T06:46:58;25.80;;;20.87;;
17714;SDS011;8977;50.902;4.314;2023-02-12T06:49:26;24.75;;;20.88;;
17714;SDS011;8977;50.902;4.314;2023-02-12T06:51:53;23.10;;;19.80;;
17714;SDS011;8977;50.902;4.314;2023-02-12T06:54:19;25.27;;;20.20;;
17714;SDS011;8977;50.902;4.314;2023-02-12T06:56:46;25.40;;;20.33;;
17714;SDS011;8977;50.902;4.314;2023-02-12T06:59:13;23.57;;;19.80;;
17714;SDS011;8977;50.902;4.314;2023-02-12T07:01:41;26.57;;;21.30;;
17714;SDS011;8977;50.902;4.314;2023-02-12T07:04:08;24.27;;;20.30;;
17714;SDS011;8977;50.902;4.314;2023-02-12T07:06:37;26.23;;;21.20;;
17714;SDS011;8977;50.902;4.314;2023-02-12T07:09:04;25.33;;;20.63;;
17714;SDS011;8977;50.902;4.314;2023-02-12T07:11:32;26.73;;;21.77;;
17714;SDS011;8977;50.902;4.314;2023-02-12T07:14:00;26.83;;;22.40;;
17714;SDS011;8977;50.902;4.314;2023-02-12T07:16:27;23.90;;;20.93;;
17714;SDS011;8977;50.902;4.314;2023-02-12T07:18:54;27.33;;;21.63;;
17714;SDS011;8977;50.902;4.314;2023-02-12T07:21:21;27.47;;;22.20;;
17714;SDS011;8977;50.902;4.314;2023-02-12T07:23:50;28.40;;;22.33;;
17714;SDS011;8977;50.902;4.314;2023-02-12T07:26:18;26.40;;;21.63;;
17714;SDS011;8977;50.902;4.314;2023-02-12T07:28:46;29.53;;;22.80;;
17714;SDS011;8977;50.902;4.314;2023-02-12T07:31:14;26.63;;;21.40;;
17714;SDS011;8977;50.902;4.314;2023-02-12T07:33:42;27.90;;;23.10;;
17714;SDS011;8977;50.902;4.314;2023-02-12T07:36:13;26.73;;;22.10;;
17714;SDS011;8977;50.902;4.314;2023-02-12T07:38:41;28.27;;;23.67;;
17714;SDS011;8977;50.902;4.314;2023-02-12T07:41:10;28.37;;;23.00;;
17714;SDS011;8977;50.902;4.314;2023-02-12T07:43:38;26.23;;;22.23;;
17714;SDS011;8977;50.902;4.314;2023-02-12T07:46:09;28.67;;;22.53;;
17714;SDS011;8977;50.902;4.314;2023-02-12T07:48:37;28.13;;;22.77;;
17714;SDS011;8977;50.902;4.314;2023-02-12T07:51:05;30.23;;;22.90;;
17714;SDS011;8977;50.902;4.314;2023-02-12T07:53:34;28.87;;;23.20;;
17714;SDS011;8977;50.902;4.314;2023-02-12T07:56:10;27.63;;;22.93;;
17714;SDS011;8977;50.902;4.314;2023-02-12T07:58:38;28.10;;;22.73;;
17714;SDS011;8977;50.902;4.314;2023-02-12T08:01:13;26.97;;;22.40;;
17714;SDS011;8977;50.902;4.314;2023-02-12T08:03:42;27.47;;;22.17;;
17714;SDS011;8977;50.902;4.314;2023-02-12T08:06:09;31.13;;;23.10;;
17714;SDS011;8977;50.902;4.314;2023-02-12T08:08:37;29.77;;;22.73;;
17714;SDS011;8977;50.902;4.314;2023-02-12T08:11:05;28.87;;;22.40;;
17714;SDS011;8977;50.902;4.314;2023-02-12T08:13:34;29.13;;;22.70;;
17714;SDS011;8977;50.902;4.314;2023-02-12T08:16:02;26.27;;;21.47;;
17714;SDS011;8977;50.902;4.314;2023-02-12T08:18:31;28.67;;;23.37;;
17714;SDS011;8977;50.902;4.314;2023-02-12T08:21:02;27.63;;;22.20;;
17714;SDS011;8977;50.902;4.314;2023-02-12T08:23:30;29.33;;;22.77;;
17714;SDS011;8977;50.902;4.314;2023-02-12T08:28:45;31.60;;;23.67;;
17714;SDS011;8977;50.902;4.314;2023-02-12T08:31:14;28.80;;;23.10;;
17714;SDS011;8977;50.902;4.314;2023-02-12T08:33:44;29.97;;;24.07;;
17714;SDS011;8977;50.902;4.314;2023-02-12T08:36:12;28.73;;;24.03;;
17714;SDS011;8977;50.902;4.314;2023-02-12T08:38:42;27.20;;;22.87;;
17714;SDS011;8977;50.902;4.314;2023-02-12T08:41:10;30.17;;;23.70;;
17714;SDS011;8977;50.902;4.314;2023-02-12T08:43:38;30.63;;;24.43;;
17714;SDS011;8977;50.902;4.314;2023-02-12T08:46:08;30.63;;;24.77;;
17714;SDS011;8977;50.902;4.314;2023-02-12T08:48:36;30.17;;;23.60;;
17714;SDS011;8977;50.902;4.314;2023-02-12T08:51:04;30.13;;;24.00;;
17714;SDS011;8977;50.902;4.314;2023-02-12T08:53:32;29.90;;;23.37;;
17714;SDS011;8977;50.902;4.314;2023-02-12T08:55:59;28.17;;;22.80;;
17714;SDS011;8977;50.902;4.314;2023-02-12T08:58:26;25.73;;;21.23;;
17714;SDS011;8977;50.902;4.314;2023-02-12T09:00:53;29.07;;;21.60;;
17714;SDS011;8977;50.902;4.314;2023-02-12T09:03:21;25.97;;;21.60;;
17714;SDS011;8977;50.902;4.314;2023-02-12T09:05:48;28.73;;;22.13;;
17714;SDS011;8977;50.902;4.314;2023-02-12T09:08:15;26.47;;;21.20;;
17714;SDS011;8977;50.902;4.314;2023-02-12T09:10:42;24.73;;;21.10;;
17714;SDS011;8977;50.902;4.314;2023-02-12T09:13:10;28.33;;;22.13;;
17714;SDS011;8977;50.902;4.314;2023-02-12T09:15:38;27.63;;;22.17;;
17714;SDS011;8977;50.902;4.314;2023-02-12T09:18:06;26.20;;;21.70;;
17714;SDS011;8977;50.902;4.314;2023-02-12T09:20:35;25.73;;;19.90;;
17714;SDS011;8977;50.902;4.314;2023-02-12T09:23:02;25.03;;;21.43;;
17714;SDS011;8977;50.902;4.314;2023-02-12T09:25:29;27.17;;;21.40;;
17714;SDS011;8977;50.902;4.314;2023-02-12T09:27:58;24.40;;;20.43;;
17714;SDS011;8977;50.902;4.314;2023-02-12T09:30:25;23.93;;;19.77;;
17714;SDS011;8977;50.902;4.314;2023-02-12T09:32:52;23.53;;;19.73;;
17714;SDS011;8977;50.902;4.314;2023-02-12T09:35:19;23.10;;;19.50;;
17714;SDS011;8977;50.902;4.314;2023-02-12T09:37:47;23.83;;;19.60;;
17714;SDS011;8977;50.902;4.314;2023-02-12T09:40:16;23.63;;;18.70;;
17714;SDS011;8977;50.902;4.314;2023-02-12T09:42:50;26.67;;;20.20;;
17714;SDS011;8977;50.902;4.314;2023-02-12T09:45:29;24.80;;;19.67;;
17714;SDS011;8977;50.902;4.314;2023-02-12T09:48:02;24.97;;;19.27;;
17714;SDS011;8977;50.902;4.314;2023-02-12T09:50:39;26.90;;;19.93;;
17714;SDS011;8977;50.902;4.314;2023-02-12T09:53:15;24.43;;;18.67;;
17714;SDS011;8977;50.902;4.314;2023-02-12T09:55:44;24.37;;;18.67;;
17714;SDS011;8977;50.902;4.314;2023-02-12T09:58:12;24.17;;;19.87;;
17714;SDS011;8977;50.902;4.314;2023-02-12T10:00:41;26.10;;;23.30;;
17714;SDS011;8977;50.902;4.314;2023-02-12T10:03:10;22.13;;;19.63;;
17714;SDS011;8977;50.902;4.314;2023-02-12T10:05:40;22.20;;;18.43;;
17714;SDS011;8977;50.902;4.314;2023-02-12T10:08:17;20.47;;;16.60;;
17714;SDS011;8977;50.902;4.314;2023-02-12T10:10:57;22.30;;;18.03;;
17714;SDS011;8977;50.902;4.314;2023-02-12T10:13:41;22.30;;;17.97;;
17714;SDS011;8977;50.902;4.314;2023-02-12T10:16:19;23.40;;;16.93;;
17714;SDS011;8977;50.902;4.314;2023-02-12T10:18:58;20.30;;;16.70;;
17714;SDS011;8977;50.902;4.314;2023-02-12T10:21:39;19.73;;;16.90;;
17714;SDS011;8977;50.902;4.314;2023-02-12T10:24:23;24.20;;;18.17;;
17714;SDS011;8977;50.902;4.314;2023-02-12T10:27:02;21.37;;;17.80;;
17714;SDS011;8977;50.902;4.314;2023-02-12T10:29:36;21.33;;;17.20;;
17714;SDS011;8977;50.902;4.314;2023-02-12T10:32:09;23.10;;;17.70;;
17714;SDS011;8977;50.902;4.314;2023-02-12T10:34:41;22.30;;;17.00;;
17714;SDS011;8977;50.902;4.314;2023-02-12T10:37:10;22.43;;;19.20;;
17714;SDS011;8977;50.902;4.314;2023-02-12T10:39:46;20.90;;;18.17;;
17714;SDS011;8977;50.902;4.314;2023-02-12T10:42:16;23.17;;;18.23;;
17714;SDS011;8977;50.902;4.314;2023-02-12T10:44:46;21.57;;;18.43;;
17714;SDS011;8977;50.902;4.314;2023-02-12T10:47:14;24.47;;;18.80;;
17714;SDS011;8977;50.902;4.314;2023-02-12T10:49:45;23.30;;;18.50;;
17714;SDS011;8977;50.902;4.314;2023-02-12T10:52:15;23.77;;;18.50;;
17714;SDS011;8977;50.902;4.314;2023-02-12T10:54:56;23.40;;;17.10;;
17714;SDS011;8977;50.902;4.314;2023-02-12T10:57:23;23.13;;;18.83;;
17714;SDS011;8977;50.902;4.314;2023-02-12T10:59:53;25.83;;;18.13;;
17714;SDS011;8977;50.902;4.314;2023-02-12T11:02:23;22.73;;;18.13;;
17714;SDS011;8977;50.902;4.314;2023-02-12T11:04:53;25.13;;;19.03;;
17714;SDS011;8977;50.902;4.314;2023-02-12T11:07:22;20.77;;;17.47;;
17714;SDS011;8977;50.902;4.314;2023-02-12T11:09:49;21.73;;;18.37;;
17714;SDS011;8977;50.902;4.314;2023-02-12T11:15:02;21.83;;;17.83;;
17714;SDS011;8977;50.902;4.314;2023-02-12T11:17:34;22.27;;;17.70;;
17714;SDS011;8977;50.902;4.314;2023-02-12T11:20:06;22.67;;;17.07;;
17714;SDS011;8977;50.902;4.314;2023-02-12T11:22:48;21.10;;;16.63;;
17714;SDS011;8977;50.902;4.314;2023-02-12T11:25:21;21.63;;;18.23;;
17714;SDS011;8977;50.902;4.314;2023-02-12T11:28:05;21.27;;;17.37;;
17714;SDS011;8977;50.902;4.314;2023-02-12T11:30:50;24.83;;;17.13;;
17714;SDS011;8977;50.902;4.314;2023-02-12T11:33:23;25.03;;;17.93;;
17714;SDS011;8977;50.902;4.314;2023-02-12T11:35:56;26.13;;;17.67;;
17714;SDS011;8977;50.902;4.314;2023-02-12T11:38:27;23.10;;;17.90;;
17714;SDS011;8977;50.902;4.314;2023-02-12T11:40:59;25.13;;;19.43;;
17714;SDS011;8977;50.902;4.314;2023-02-12T11:43:31;23.67;;;17.97;;
17714;SDS011;8977;50.902;4.314;2023-02-12T11:46:01;22.93;;;17.33;;
17714;SDS011;8977;50.902;4.314;2023-02-12T11:48:30;21.63;;;16.67;;
17714;SDS011;8977;50.902;4.314;2023-02-12T11:51:00;21.07;;;16.90;;
17714;SDS011;8977;50.902;4.314;2023-02-12T11:53:29;21.30;;;17.20;;
17714;SDS011;8977;50.902;4.314;2023-02-12T11:55:58;21.70;;;18.00;;
17714;SDS011;8977;50.902;4.314;2023-02-12T11:58:27;25.20;;;18.60;;
17714;SDS011;8977;50.902;4.314;2023-02-12T12:01:00;23.40;;;17.93;;
17714;SDS011;8977;50.902;4.314;2023-02-12T12:03:33;23.43;;;18.57;;
17714;SDS011;8977;50.902;4.314;2023-02-12T12:06:05;22.60;;;18.00;;
17714;SDS011;8977;50.902;4.314;2023-02-12T12:08:39;22.70;;;17.40;;
17714;SDS011;8977;50.902;4.314;2023-02-12T12:11:10;22.13;;;17.07;;
17714;SDS011;8977;50.902;4.314;2023-02-12T12:13:43;21.10;;;16.10;;
17714;SDS011;8977;50.902;4.314;2023-02-12T12:16:17;21.53;;;15.63;;
17714;SDS011;8977;50.902;4.314;2023-02-12T12:19:09;20.97;;;15.73;;
17714;SDS011;8977;50.902;4.314;2023-02-12T12:22:02;18.23;;;14.67;;
17714;SDS011;8977;50.902;4.314;2023-02-12T12:24:35;18.47;;;14.73;;
17714;SDS011;8977;50.902;4.314;2023-02-12T12:27:09;20.00;;;15.57;;
17714;SDS011;8977;50.902;4.314;2023-02-12T12:30:10;18.43;;;14.20;;
17714;SDS011;8977;50.902;4.314;2023-02-12T12:32:44;21.17;;;15.57;;
17714;SDS011;8977;50.902;4.314;2023-02-12T12:35:15;22.17;;;14.73;;
17714;SDS011;8977;50.902;4.314;2023-02-12T12:37:47;19.73;;;14.47;;
17714;SDS011;8977;50.902;4.314;2023-02-12T12:40:25;19.07;;;14.27;;
17714;SDS011;8977;50.902;4.314;2023-02-12T12:43:06;17.70;;;14.00;;
17714;SDS011;8977;50.902;4.314;2023-02-12T12:45:45;17.77;;;13.70;;
17714;SDS011;8977;50.902;4.314;2023-02-12T12:48:28;17.80;;;14.53;;
17714;SDS011;8977;50.902;4.314;2023-02-12T12:51:11;18.73;;;14.87;;
17714;SDS011;8977;50.902;4.314;2023-02-12T12:53:53;21.17;;;15.63;;
17714;SDS011;8977;50.902;4.314;2023-02-12T12:56:33;18.77;;;15.13;;
17714;SDS011;8977;50.902;4.314;2023-02-12T12:59:19;21.50;;;15.30;;
17714;SDS011;8977;50.902;4.314;2023-02-12T13:02:04;20.07;;;15.93;;
17714;SDS011;8977;50.902;4.314;2023-02-12T13:05:11;24.20;;;16.20;;
17714;SDS011;8977;50.902;4.314;2023-02-12T13:08:11;18.27;;;15.47;;
17714;SDS011;8977;50.902;4.314;2023-02-12T13:10:53;20.57;;;16.33;;
17714;SDS011;8977;50.902;4.314;2023-02-12T13:13:25;19.27;;;15.30;;
17714;SDS011;8977;50.902;4.314;2023-02-12T13:16:00;20.70;;;15.77;;
17714;SDS011;8977;50.902;4.314;2023-02-12T13:18:36;22.00;;;15.43;;
17714;SDS011;8977;50.902;4.314;2023-02-12T13:21:13;22.97;;;16.73;;
17714;SDS011;8977;50.902;4.314;2023-02-12T13:23:45;22.20;;;16.53;;
17714;SDS011;8977;50.902;4.314;2023-02-12T13:26:19;21.27;;;15.80;;
17714;SDS011;8977;50.902;4.314;2023-02-12T13:28:51;19.77;;;16.00;;
17714;SDS011;8977;50.902;4.314;2023-02-12T13:31:22;19.03;;;15.17;;
17714;SDS011;8977;50.902;4.314;2023-02-12T13:33:54;20.27;;;15.97;;
17714;SDS011;8977;50.902;4.314;2023-02-12T13:36:24;21.97;;;15.53;;
17714;SDS011;8977;50.902;4.314;2023-02-12T13:38:53;21.73;;;16.33;;
17714;SDS011;8977;50.902;4.314;2023-02-12T13:41:23;19.53;;;15.77;;
17714;SDS011;8977;50.902;4.314;2023-02-12T13:44:03;22.33;;;16.33;;
17714;SDS011;8977;50.902;4.314;2023-02-12T13:46:38;22.50;;;15.40;;
17714;SDS011;8977;50.902;4.314;2023-02-12T13:49:17;21.50;;;15.47;;
17714;SDS011;8977;50.902;4.314;2023-02-12T13:51:53;20.63;;;15.63;;
17714;SDS011;8977;50.902;4.314;2023-02-12T13:54:29;18.80;;;15.10;;
17714;SDS011;8977;50.902;4.314;2023-02-12T13:57:07;21.57;;;15.87;;
17714;SDS011;8977;50.902;4.314;2023-02-12T13:59:38;19.70;;;16.23;;
17714;SDS011;8977;50.902;4.314;2023-02-12T14:02:25;20.87;;;15.47;;
17714;SDS011;8977;50.902;4.314;2023-02-12T14:05:20;21.43;;;16.20;;
17714;SDS011;8977;50.902;4.314;2023-02-12T14:07:55;18.60;;;14.83;;
17714;SDS011;8977;50.902;4.314;2023-02-12T14:10:25;18.43;;;14.80;;
17714;SDS011;8977;50.902;4.314;2023-02-12T14:12:56;21.00;;;16.63;;
17714;SDS011;8977;50.902;4.314;2023-02-12T14:15:35;23.20;;;17.07;;
17714;SDS011;8977;50.902;4.314;2023-02-12T14:18:06;20.37;;;15.53;;
17714;SDS011;8977;50.902;4.314;2023-02-12T14:20:49;19.93;;;14.90;;
17714;SDS011;8977;50.902;4.314;2023-02-12T14:35:45;23.87;;;17.43;;
17714;SDS011;8977;50.902;4.314;2023-02-12T14:41:29;22.13;;;16.10;;
17714;SDS011;8977;50.902;4.314;2023-02-12T14:47:12;24.55;;;21.05;;
17714;SDS011;8977;50.902;4.314;2023-02-12T14:49:54;20.33;;;16.97;;
17714;SDS011;8977;50.902;4.314;2023-02-12T14:52:27;22.43;;;17.33;;
17714;SDS011;8977;50.902;4.314;2023-02-12T14:54:58;21.60;;;16.33;;
17714;SDS011;8977;50.902;4.314;2023-02-12T14:57:27;24.63;;;18.17;;
17714;SDS011;8977;50.902;4.314;2023-02-12T14:59:56;24.57;;;18.07;;
17714;SDS011;8977;50.902;4.314;2023-02-12T15:02:28;23.07;;;17.27;;
17714;SDS011;8977;50.902;4.314;2023-02-12T15:04:58;23.67;;;17.07;;
17714;SDS011;8977;50.902;4.314;2023-02-12T15:07:30;26.37;;;18.73;;
17714;SDS011;8977;50.902;4.314;2023-02-12T15:10:03;24.30;;;17.40;;
17714;SDS011;8977;50.902;4.314;2023-02-12T15:12:38;23.50;;;17.67;;
17714;SDS011;8977;50.902;4.314;2023-02-12T15:15:11;23.83;;;17.27;;
17714;SDS011;8977;50.902;4.314;2023-02-12T15:17:46;25.03;;;18.23;;
17714;SDS011;8977;50.902;4.314;2023-02-12T15:20:21;26.03;;;18.90;;
17714;SDS011;8977;50.902;4.314;2023-02-12T15:22:55;26.00;;;17.60;;
17714;SDS011;8977;50.902;4.314;2023-02-12T15:25:23;23.87;;;18.37;;
17714;SDS011;8977;50.902;4.314;2023-02-12T15:27:53;23.43;;;18.50;;